Autopride — CQQE — position and weather

sailwx.info

Track history (hours):
 
Tides and Currents Weather Stations Pressure Air Temp Water Temp Dewpoint Dewpoint Depression Visibility Wind Speed Wind Dir Waves Ship Positions

Autopride

Last reported at 2016-Jul-23 22:33 UTC. Time now 2016-Jul-23 23:11 UTC.
Position N 49°31' W 003°41'.

Length 125 m; draft 5.5 m.

Type: Cargo ship. MMSI: 255801560.

Date/timePositionNaut miles runAvg speedWind from/ knotsBaromVisibWave heightAir tempDewpointWater temp
2016-Jul-23 22:33N 49°31' W 003°41'1312.5
2016-Jul-23 21:30N 49°24' W 003°58'1713.0
2016-Jul-23 20:11N 49°15' W 004°21'913.3
2016-Jul-23 19:31N 49°11' W 004°32'1713.2
2016-Jul-23 18:15N 49°02' W 004°55'1412.9
2016-Jul-23 17:10N 48°56' W 005°13'1213.9
2016-Jul-23 16:20N 48°50' W 005°28'5611.7
2016-Jul-23 11:33N 47°55' W 005°15'1111.2
2016-Jul-23 10:33N 47°46' W 005°04'1211.8
2016-Jul-23 09:30N 47°34' W 004°59'1211.9
2016-Jul-23 08:30N 47°23' W 004°51'1112.0
2016-Jul-23 07:33N 47°13' W 004°43'1212.3
2016-Jul-23 06:33N 47°02' W 004°35'6812.9
2016-Jul-23 01:19N 46°02' W 003°50'1113.1
2016-Jul-23 00:28N 45°52' W 003°43'1413.2
2016-Jul-22 23:24N 45°39' W 003°34'152 7.7
2016-Jul-22 03:33N 43°23' W 001°58'16710.9
2016-Jul-21 12:20N 45°51' W 003°46'911.1
2016-Jul-21 11:34N 45°58' W 003°52'1211.0
2016-Jul-21 10:28N 46°09' W 003°60'1010.5
2016-Jul-21 09:30N 46°18' W 004°07'1110.7
2016-Jul-21 08:30N 46°28' W 004°14'1111.3
2016-Jul-21 07:32N 46°37' W 004°21'1211.6
2016-Jul-21 06:32N 46°47' W 004°29'1311.5
2016-Jul-21 05:26N 46°59' W 004°38'1112.3
2016-Jul-21 04:33N 47°08' W 004°45'1212.1
2016-Jul-21 03:33N 47°19' W 004°53'1211.5
2016-Jul-21 02:31N 47°30' W 005°01'1111.3
2016-Jul-21 01:33N 47°39' W 005°09'1111.2
2016-Jul-21 00:33N 47°49' W 005°17'6810.5
2016-Jul-20 18:06N 48°55' W 005°40'911.1
2016-Jul-20 17:20N 48°59' W 005°29'910.6
2016-Jul-20 16:30N 49°04' W 005°17'7912.8
2016-Jul-20 10:22N 49°43' W 003°33'1012.7
2016-Jul-20 09:33N 49°48' W 003°19'1211.4
2016-Jul-20 08:32N 49°54' W 003°03'1210.4
2016-Jul-20 07:25N 49°59' W 002°47'910.2
2016-Jul-20 06:34N 50°01' W 002°34'1210.7
2016-Jul-20 05:29N 50°05' W 002°17'1312.1
2016-Jul-20 04:25N 50°09' W 001°57'3215.5
2016-Jul-20 02:20N 50°18' W 001°09'1316.9
2016-Jul-20 01:33N 50°22' W 000°49'1615.9
2016-Jul-20 00:33N 50°27' W 000°26'1514.5
2016-Jul-19 23:33N 50°31' W 000°04'1313.3
2016-Jul-19 22:33N 50°35' E 000°16'1212.4
2016-Jul-19 21:33N 50°39' E 000°35'1812.8
2016-Jul-19 20:10N 50°49' E 000°58'1014.3
2016-Jul-19 19:28N 50°55' E 001°10'1516.1
2016-Jul-19 18:33N 51°04' E 001°29'1616.4
2016-Jul-19 17:33N 51°15' E 001°48'1313.4
2016-Jul-19 16:33N 51°25' E 002°04'1312.9
2016-Jul-19 15:33N 51°22' E 002°24'1212.4
2016-Jul-19 14:33N 51°23' E 002°44'1515.5
2016-Jul-19 13:33N 51°23' E 003°09'4 4.3
2016-Jul-19 12:33N 51°20' E 003°13'1 0.6
2016-Jul-19 11:28N 51°19' E 003°13'0 0.0
2016-Jul-19 10:31N 51°19' E 003°13'0 0.0
2016-Jul-19 09:25N 51°19' E 003°13'0 0.0
2016-Jul-19 08:22N 51°19' E 003°13'0 0.0
2016-Jul-19 07:31N 51°19' E 003°13'0 0.0
2016-Jul-19 04:31N 51°19' E 003°13'0 0.0
2016-Jul-19 03:33N 51°19' E 003°13'1 0.6
2016-Jul-19 02:33N 51°20' E 003°13'3 2.5
2016-Jul-19 01:34N 51°22' E 003°11'1111.2
2016-Jul-19 00:33N 51°22' E 002°53'1312.7
2016-Jul-18 23:33N 51°22' E 002°33'1010.0
2016-Jul-18 22:33N 51°18' E 002°18'1211.9
2016-Jul-18 21:34N 51°12' E 002°01'1211.6
2016-Jul-18 20:34N 51°06' E 001°46'1211.6
2016-Jul-18 19:34N 50°58' E 001°33'1010.1
2016-Jul-18 18:33N 50°48' E 001°26'10 9.8
2016-Jul-18 17:34N 50°40' E 001°18'2710.7
2016-Jul-18 15:03N 50°26' E 000°42'611.2
2016-Jul-18 14:33N 50°25' E 000°34'1111.3
2016-Jul-18 13:33N 50°22' E 000°17'1211.6
2016-Jul-18 12:33N 50°18' W 000°01'1211.9
2016-Jul-18 11:33N 50°15' W 000°19'1111.3
2016-Jul-18 10:33N 50°13' W 000°36'1111.4
2016-Jul-18 09:34N 50°10' W 000°53'1312.8
2016-Jul-18 08:33N 50°06' W 001°12'1413.8
2016-Jul-18 07:33N 50°03' W 001°33'1514.6
2016-Jul-18 06:32N 49°59' W 001°56'1515.0
2016-Jul-18 05:33N 49°55' W 002°18'1514.6
2016-Jul-18 04:33N 49°51' W 002°39'1413.6
2016-Jul-18 03:33N 49°47' W 002°59'1313.2
2016-Jul-18 02:33N 49°40' W 003°16'1312.9
2016-Jul-18 01:33N 49°33' W 003°34'1212.6
2016-Jul-18 00:34N 49°27' W 003°50'1312.5
2016-Jul-17 23:33N 49°21' W 004°07'2511.9
2016-Jul-17 21:25N 49°08' W 004°41'1011.5
2016-Jul-17 20:33N 49°03' W 004°54'1111.1
2016-Jul-17 19:33N 48°57' W 005°08'1110.8
2016-Jul-17 18:33N 48°51' W 005°22'1111.2
2016-Jul-17 17:33N 48°45' W 005°36'3210.8
2016-Jul-17 14:33N 48°13' W 005°27'8811.9
2016-Jul-17 07:12N 46°54' W 004°28'1212.0
2016-Jul-17 06:12N 46°44' W 004°20'2012.0
2016-Jul-17 04:31N 46°25' W 004°07'1211.8
2016-Jul-17 03:30N 46°15' W 003°59'10811.9
2016-Jul-16 18:27N 44°38' W 002°50'1312.4
2016-Jul-16 17:23N 44°26' W 002°42'75 5.8
2016-Jul-16 04:24N 43°19' W 001°54'7 7.9
2016-Jul-16 03:32N 43°25' W 001°59'10 9.6
2016-Jul-16 02:32N 43°34' W 002°05'9 8.8
2016-Jul-16 01:33N 43°41' W 002°11'9 9.1
2016-Jul-16 00:33N 43°49' W 002°17'9 9.0
2016-Jul-15 23:33N 43°57' W 002°23'9 9.1
2016-Jul-15 22:33N 44°05' W 002°29'9 9.1
2016-Jul-15 21:33N 44°13' W 002°34'10 8.8
2016-Jul-15 20:28N 44°22' W 002°40'74 9.2
2016-Jul-15 12:25N 45°27' W 003°29'8 9.2
2016-Jul-15 11:32N 45°35' W 003°34'50 9.1
2016-Jul-15 06:04N 46°19' W 004°07'5 9.0
2016-Jul-15 05:31N 46°23' W 004°11'19 9.4
2016-Jul-15 03:33N 46°40' W 004°23'4310.1
2016-Jul-14 23:20N 47°18' W 004°52'8 9.9
2016-Jul-14 22:31N 47°25' W 004°58'9 9.8
2016-Jul-14 21:33N 47°33' W 005°04'10 9.8
2016-Jul-14 20:33N 47°42' W 005°11'10 9.7
2016-Jul-14 19:32N 47°51' W 005°18'11 9.8
2016-Jul-14 18:25N 48°01' W 005°25'9 9.8
2016-Jul-14 17:33N 48°08' W 005°31'46 9.1
2016-Jul-14 12:25N 48°54' W 005°44'10510.2
2016-Jul-14 02:11N 49°46' W 003°25'8 9.7
2016-Jul-14 01:21N 49°51' W 003°16'8 9.5
2016-Jul-14 00:33N 49°54' W 003°05'1010.2
2016-Jul-13 23:33N 49°58' W 002°50'  
Track history (hours):
 
Tides and Currents Weather Stations Pressure Air Temp Water Temp Dewpoint Dewpoint Depression Visibility Wind Speed Wind Dir Waves Ship Positions

Autopride

Last reported at 2016-Jul-23 22:33 UTC. Time now 2016-Jul-23 23:11 UTC.
Position N 49°31' W 003°41'.

Length 125 m; draft 5.5 m.

Type: Cargo ship. MMSI: 255801560.

Date/timePositionNaut miles runAvg speedWind from/ knotsBaromVisibWave heightAir tempDewpointWater temp
2016-Jul-23 22:33N 49°31' W 003°41'1312.5
2016-Jul-23 21:30N 49°24' W 003°58'1713.0
2016-Jul-23 20:11N 49°15' W 004°21'913.3
2016-Jul-23 19:31N 49°11' W 004°32'1713.2
2016-Jul-23 18:15N 49°02' W 004°55'1412.9
2016-Jul-23 17:10N 48°56' W 005°13'1213.9
2016-Jul-23 16:20N 48°50' W 005°28'5611.7
2016-Jul-23 11:33N 47°55' W 005°15'1111.2
2016-Jul-23 10:33N 47°46' W 005°04'1211.8
2016-Jul-23 09:30N 47°34' W 004°59'1211.9
2016-Jul-23 08:30N 47°23' W 004°51'1112.0
2016-Jul-23 07:33N 47°13' W 004°43'1212.3
2016-Jul-23 06:33N 47°02' W 004°35'6812.9
2016-Jul-23 01:19N 46°02' W 003°50'1113.1
2016-Jul-23 00:28N 45°52' W 003°43'1413.2
2016-Jul-22 23:24N 45°39' W 003°34'152 7.7
2016-Jul-22 03:33N 43°23' W 001°58'16710.9
2016-Jul-21 12:20N 45°51' W 003°46'911.1
2016-Jul-21 11:34N 45°58' W 003°52'1211.0
2016-Jul-21 10:28N 46°09' W 003°60'1010.5
2016-Jul-21 09:30N 46°18' W 004°07'1110.7
2016-Jul-21 08:30N 46°28' W 004°14'1111.3
2016-Jul-21 07:32N 46°37' W 004°21'1211.6
2016-Jul-21 06:32N 46°47' W 004°29'1311.5
2016-Jul-21 05:26N 46°59' W 004°38'1112.3
2016-Jul-21 04:33N 47°08' W 004°45'1212.1
2016-Jul-21 03:33N 47°19' W 004°53'1211.5
2016-Jul-21 02:31N 47°30' W 005°01'1111.3
2016-Jul-21 01:33N 47°39' W 005°09'1111.2
2016-Jul-21 00:33N 47°49' W 005°17'6810.5
2016-Jul-20 18:06N 48°55' W 005°40'911.1
2016-Jul-20 17:20N 48°59' W 005°29'910.6
2016-Jul-20 16:30N 49°04' W 005°17'7912.8
2016-Jul-20 10:22N 49°43' W 003°33'1012.7
2016-Jul-20 09:33N 49°48' W 003°19'1211.4
2016-Jul-20 08:32N 49°54' W 003°03'1210.4
2016-Jul-20 07:25N 49°59' W 002°47'910.2
2016-Jul-20 06:34N 50°01' W 002°34'1210.7
2016-Jul-20 05:29N 50°05' W 002°17'1312.1
2016-Jul-20 04:25N 50°09' W 001°57'3215.5
2016-Jul-20 02:20N 50°18' W 001°09'1316.9
2016-Jul-20 01:33N 50°22' W 000°49'1615.9
2016-Jul-20 00:33N 50°27' W 000°26'1514.5
2016-Jul-19 23:33N 50°31' W 000°04'1313.3
2016-Jul-19 22:33N 50°35' E 000°16'1212.4
2016-Jul-19 21:33N 50°39' E 000°35'1812.8
2016-Jul-19 20:10N 50°49' E 000°58'1014.3
2016-Jul-19 19:28N 50°55' E 001°10'1516.1
2016-Jul-19 18:33N 51°04' E 001°29'1616.4
2016-Jul-19 17:33N 51°15' E 001°48'1313.4
2016-Jul-19 16:33N 51°25' E 002°04'1312.9
2016-Jul-19 15:33N 51°22' E 002°24'1212.4
2016-Jul-19 14:33N 51°23' E 002°44'1515.5
2016-Jul-19 13:33N 51°23' E 003°09'4 4.3
2016-Jul-19 12:33N 51°20' E 003°13'1 0.6
2016-Jul-19 11:28N 51°19' E 003°13'0 0.0
2016-Jul-19 10:31N 51°19' E 003°13'0 0.0
2016-Jul-19 09:25N 51°19' E 003°13'0 0.0
2016-Jul-19 08:22N 51°19' E 003°13'0 0.0
2016-Jul-19 07:31N 51°19' E 003°13'0 0.0
2016-Jul-19 04:31N 51°19' E 003°13'0 0.0
2016-Jul-19 03:33N 51°19' E 003°13'1 0.6
2016-Jul-19 02:33N 51°20' E 003°13'3 2.5
2016-Jul-19 01:34N 51°22' E 003°11'1111.2
2016-Jul-19 00:33N 51°22' E 002°53'1312.7
2016-Jul-18 23:33N 51°22' E 002°33'1010.0
2016-Jul-18 22:33N 51°18' E 002°18'1211.9
2016-Jul-18 21:34N 51°12' E 002°01'1211.6
2016-Jul-18 20:34N 51°06' E 001°46'1211.6
2016-Jul-18 19:34N 50°58' E 001°33'1010.1
2016-Jul-18 18:33N 50°48' E 001°26'10 9.8
2016-Jul-18 17:34N 50°40' E 001°18'2710.7
2016-Jul-18 15:03N 50°26' E 000°42'611.2
2016-Jul-18 14:33N 50°25' E 000°34'1111.3
2016-Jul-18 13:33N 50°22' E 000°17'1211.6
2016-Jul-18 12:33N 50°18' W 000°01'1211.9
2016-Jul-18 11:33N 50°15' W 000°19'1111.3
2016-Jul-18 10:33N 50°13' W 000°36'1111.4
2016-Jul-18 09:34N 50°10' W 000°53'1312.8
2016-Jul-18 08:33N 50°06' W 001°12'1413.8
2016-Jul-18 07:33N 50°03' W 001°33'1514.6
2016-Jul-18 06:32N 49°59' W 001°56'1515.0
2016-Jul-18 05:33N 49°55' W 002°18'1514.6
2016-Jul-18 04:33N 49°51' W 002°39'1413.6
2016-Jul-18 03:33N 49°47' W 002°59'1313.2
2016-Jul-18 02:33N 49°40' W 003°16'1312.9
2016-Jul-18 01:33N 49°33' W 003°34'1212.6
2016-Jul-18 00:34N 49°27' W 003°50'1312.5
2016-Jul-17 23:33N 49°21' W 004°07'2511.9
2016-Jul-17 21:25N 49°08' W 004°41'1011.5
2016-Jul-17 20:33N 49°03' W 004°54'1111.1
2016-Jul-17 19:33N 48°57' W 005°08'1110.8
2016-Jul-17 18:33N 48°51' W 005°22'1111.2
2016-Jul-17 17:33N 48°45' W 005°36'3210.8
2016-Jul-17 14:33N 48°13' W 005°27'8811.9
2016-Jul-17 07:12N 46°54' W 004°28'1212.0
2016-Jul-17 06:12N 46°44' W 004°20'2012.0
2016-Jul-17 04:31N 46°25' W 004°07'1211.8
2016-Jul-17 03:30N 46°15' W 003°59'10811.9
2016-Jul-16 18:27N 44°38' W 002°50'1312.4
2016-Jul-16 17:23N 44°26' W 002°42'75 5.8
2016-Jul-16 04:24N 43°19' W 001°54'7 7.9
2016-Jul-16 03:32N 43°25' W 001°59'10 9.6
2016-Jul-16 02:32N 43°34' W 002°05'9 8.8
2016-Jul-16 01:33N 43°41' W 002°11'9 9.1
2016-Jul-16 00:33N 43°49' W 002°17'9 9.0
2016-Jul-15 23:33N 43°57' W 002°23'9 9.1
2016-Jul-15 22:33N 44°05' W 002°29'9 9.1
2016-Jul-15 21:33N 44°13' W 002°34'10 8.8
2016-Jul-15 20:28N 44°22' W 002°40'74 9.2
2016-Jul-15 12:25N 45°27' W 003°29'8 9.2
2016-Jul-15 11:32N 45°35' W 003°34'50 9.1
2016-Jul-15 06:04N 46°19' W 004°07'5 9.0
2016-Jul-15 05:31N 46°23' W 004°11'19 9.4
2016-Jul-15 03:33N 46°40' W 004°23'4310.1
2016-Jul-14 23:20N 47°18' W 004°52'8 9.9
2016-Jul-14 22:31N 47°25' W 004°58'9 9.8
2016-Jul-14 21:33N 47°33' W 005°04'10 9.8
2016-Jul-14 20:33N 47°42' W 005°11'10 9.7
2016-Jul-14 19:32N 47°51' W 005°18'11 9.8
2016-Jul-14 18:25N 48°01' W 005°25'9 9.8
2016-Jul-14 17:33N 48°08' W 005°31'46 9.1
2016-Jul-14 12:25N 48°54' W 005°44'10510.2
2016-Jul-14 02:11N 49°46' W 003°25'8 9.7
2016-Jul-14 01:21N 49°51' W 003°16'8 9.5
2016-Jul-14 00:33N 49°54' W 003°05'1010.2
2016-Jul-13 23:33N 49°58' W 002°50'  

Dump ship's entire track history